Aérodrome :
LOGIN :

S'inscrire | Disclaimer

   EN    FR    IT 

 










Légende :    VFR   VFR Marginal   IFR   IFR Intensif   IFR Très Intensif
Visi : 
Plafond : 
>= 8 km
>= 3000ft
5 à 8 km
1000 à 3000 ft
1500m à 5 km
500 à 1000 ft
800 à 1500m
200 à 500 ft
< 800m
< 200 ft
Symboles :   Orages  Brouillard  Fortes neiges  Fortes précipitations  Vent > 20 kt
SIGMETs :   Divers  Orages  Givrage  Turbulence  Onde Orograph.  Cendres Volcan.







- Altitude de l'aérodrome : 33 ft
- Code IATA : MHZ


EGUN - RAF Mildenhall

DERNIER METAR :
  • 212056Z AUTO 00000KT 9999 CLR 13/09 A3035 RMK AO2 SLP281 T01300085 52008 $

METARs EXPIRÉS :
  • 211956Z AUTO 00000KT 9999 CLR 16/06 A3034 RMK AO2 SLP277 T01620060 $
  • 211856Z AUTO 02004KT 9999 CLR 17/06 A3033 RMK AO2 SLP274 T01680057 $

TAF TAF EGUN
Valide du 21 à 20h jusqu'au 23 à 02h UTC


212002Z 2120/2302 31006KT 9999 FEW060 QNH3033INS
BECMG 2206/2207 33012KT 9999 FEW030 QNH3039INS
BECMG 2217/2218 VRB06KT 9999 FEW060 QNH3035INS
BECMG 2222/2223 VRB06KT 3200 BR SCT060 QNH3034INS TX20/2216Z TN09/2204Z
Pas de NOTAMs connus pour ce terrain.



MET'MAP, la Météo Aéronautique d'un coup d'oeil ! - Copyright ORBIFLY Décembre 2007 - Disclaimer

ORBIFLY MET'MAP TEAM :

Programmation & Développement : Alexandra Zaïnal
Conception & Développement : Baudouin d'Aumeries
Co-Programmation & Développement : Marc-Olivier Méhu
Soutien technique & logistique : Manuel Goepfert

Contact : metmap@orbifly.com




SOURCES & CREDITS :

   NOAA